createdAt,value
2018-02-02T00:00:23.339Z,1.80
2018-02-02T00:02:51.515Z,1.80
2018-02-02T00:05:19.670Z,1.80
2018-02-02T00:07:47.797Z,1.90
2018-02-02T00:10:15.974Z,1.90
2018-02-02T00:12:44.102Z,2.00
2018-02-02T00:15:12.255Z,2.00
2018-02-02T00:17:40.386Z,2.10
2018-02-02T00:20:08.529Z,2.10
2018-02-02T00:22:36.652Z,2.20
2018-02-02T00:25:04.806Z,2.20
2018-02-02T00:27:32.943Z,2.30
2018-02-02T00:30:01.097Z,2.30
2018-02-02T00:32:29.222Z,2.30
2018-02-02T00:34:57.376Z,2.30
2018-02-02T00:37:25.505Z,2.40
2018-02-02T00:39:53.663Z,2.40
2018-02-02T00:42:21.785Z,2.40
2018-02-02T00:44:49.936Z,2.50
2018-02-02T00:47:18.815Z,2.50
2018-02-02T00:49:46.970Z,2.50
2018-02-02T00:52:15.104Z,2.50
2018-02-02T00:54:43.257Z,2.60
2018-02-02T00:57:11.380Z,2.60
2018-02-02T00:59:39.529Z,2.60
2018-02-02T01:02:07.669Z,2.50
2018-02-02T01:04:35.817Z,2.60
2018-02-02T01:07:03.942Z,2.50
2018-02-02T01:09:32.093Z,2.50
2018-02-02T01:12:00.222Z,2.50
2018-02-02T01:14:28.369Z,2.60
2018-02-02T01:16:56.495Z,2.60
2018-02-02T01:19:24.649Z,2.60
2018-02-02T01:21:52.780Z,2.60
2018-02-02T01:24:20.929Z,2.60
2018-02-02T01:26:49.068Z,2.60
2018-02-02T01:29:17.215Z,2.60
2018-02-02T01:31:45.336Z,2.50
2018-02-02T01:34:13.490Z,2.50
2018-02-02T01:36:41.613Z,2.40
2018-02-02T01:39:09.760Z,2.40
2018-02-02T01:41:37.893Z,2.40
2018-02-02T01:44:06.041Z,2.40
2018-02-02T01:46:34.165Z,2.30
2018-02-02T01:49:03.089Z,2.20
2018-02-02T01:51:31.219Z,2.20
2018-02-02T01:53:59.366Z,2.20
2018-02-02T01:56:27.494Z,2.10
2018-02-02T01:58:55.618Z,2.10
2018-02-02T02:01:23.770Z,2.00
2018-02-02T02:03:51.890Z,2.00
2018-02-02T02:06:20.046Z,2.00
2018-02-02T02:08:48.177Z,2.00
2018-02-02T02:11:16.326Z,1.90
2018-02-02T02:13:44.451Z,1.90
2018-02-02T02:16:12.597Z,2.00
2018-02-02T02:18:40.723Z,1.90
2018-02-02T02:21:08.878Z,1.90
2018-02-02T02:23:36.997Z,1.90
2018-02-02T02:26:05.153Z,1.90
2018-02-02T02:28:34.050Z,1.90
2018-02-02T02:31:02.202Z,1.90
2018-02-02T02:33:30.328Z,2.00
2018-02-02T02:35:58.482Z,2.00
2018-02-02T02:38:26.612Z,2.00
2018-02-02T02:40:54.769Z,2.00
2018-02-02T02:43:22.914Z,2.00
2018-02-02T02:45:51.071Z,2.00
2018-02-02T02:48:19.201Z,2.00
2018-02-02T02:50:47.352Z,2.10
2018-02-02T02:53:15.496Z,2.10
2018-02-02T02:55:43.650Z,2.10
2018-02-02T02:58:11.777Z,2.20
2018-02-02T03:00:39.938Z,2.20
2018-02-02T03:03:08.069Z,2.30
2018-02-02T03:05:36.989Z,2.30
2018-02-02T03:08:05.125Z,2.30
2018-02-02T03:10:33.287Z,2.30
2018-02-02T03:13:01.431Z,2.40
2018-02-02T03:15:29.594Z,2.40
2018-02-02T03:17:57.725Z,2.40
2018-02-02T03:20:26.650Z,2.40
2018-02-02T03:22:54.786Z,2.50
2018-02-02T03:25:22.947Z,2.40
2018-02-02T03:27:51.069Z,2.50
2018-02-02T03:30:19.230Z,2.50
2018-02-02T03:32:47.361Z,2.60
2018-02-02T03:35:15.525Z,2.60
2018-02-02T03:37:43.658Z,2.60
2018-02-02T03:40:11.819Z,2.70
2018-02-02T03:42:39.949Z,2.70
2018-02-02T03:45:08.113Z,2.70
2018-02-02T03:47:36.237Z,2.80
2018-02-02T03:50:04.406Z,2.80
2018-02-02T03:52:32.537Z,2.80
2018-02-02T03:55:00.694Z,2.80
2018-02-02T03:57:28.829Z,2.80
2018-02-02T03:59:57.000Z,2.90
2018-02-02T04:02:25.129Z,2.90
2018-02-02T04:04:53.284Z,2.90
2018-02-02T04:07:21.415Z,2.90
2018-02-02T04:09:49.571Z,2.90
2018-02-02T04:12:17.691Z,2.90
2018-02-02T04:14:45.873Z,2.90
2018-02-02T04:17:14.007Z,3.00
2018-02-02T04:19:42.145Z,3.00
2018-02-02T04:22:10.297Z,3.00
2018-02-02T04:24:38.430Z,3.00
2018-02-02T04:27:07.354Z,3.00
2018-02-02T04:29:35.487Z,3.00
2018-02-02T04:32:04.405Z,3.00
2018-02-02T04:34:32.537Z,3.00
2018-02-02T04:37:00.697Z,3.00
2018-02-02T04:39:28.824Z,3.00
2018-02-02T04:41:56.985Z,3.10
2018-02-02T04:44:25.116Z,3.00
2018-02-02T04:46:53.275Z,3.10
2018-02-02T04:49:21.445Z,3.10
2018-02-02T04:51:49.602Z,3.10
2018-02-02T04:54:17.732Z,3.10
2018-02-02T04:56:46.652Z,3.10
2018-02-02T04:59:14.805Z,3.10
2018-02-02T05:01:43.729Z,3.10
2018-02-02T05:04:11.863Z,3.10
2018-02-02T05:06:40.784Z,3.00
2018-02-02T05:09:08.913Z,3.00
2018-02-02T05:11:37.077Z,3.10
2018-02-02T05:14:05.207Z,3.00
2018-02-02T05:16:33.372Z,3.10
2018-02-02T05:19:01.506Z,3.10
2018-02-02T05:21:29.667Z,3.00
2018-02-02T05:23:57.812Z,3.00
2018-02-02T05:26:25.973Z,3.00
2018-02-02T05:28:54.100Z,3.00
2018-02-02T05:31:22.267Z,2.90
2018-02-02T05:33:50.398Z,2.90
2018-02-02T05:36:18.556Z,2.90
2018-02-02T05:38:46.689Z,2.90
2018-02-02T05:41:14.841Z,2.80
2018-02-02T05:43:42.971Z,2.80
2018-02-02T05:46:11.130Z,2.90
2018-02-02T05:48:39.269Z,2.90
2018-02-02T05:51:07.430Z,2.90
2018-02-02T05:53:35.563Z,2.90
2018-02-02T05:56:03.726Z,2.90
2018-02-02T05:58:31.855Z,2.90
2018-02-02T06:01:00.068Z,2.90
2018-02-02T06:03:28.180Z,2.90
2018-02-02T06:05:56.334Z,2.90
2018-02-02T06:08:24.466Z,2.90
2018-02-02T06:10:52.598Z,2.90
2018-02-02T06:13:20.752Z,2.90
2018-02-02T06:15:48.895Z,3.00
2018-02-02T06:18:17.048Z,3.00
2018-02-02T06:20:45.177Z,3.00
2018-02-02T06:23:13.341Z,3.00
2018-02-02T06:25:41.478Z,3.00
2018-02-02T06:28:09.634Z,3.10
2018-02-02T06:30:37.778Z,3.00
2018-02-02T06:33:05.933Z,3.10
2018-02-02T06:35:34.066Z,3.10
2018-02-02T06:38:02.222Z,3.10
2018-02-02T06:40:30.352Z,3.10
2018-02-02T06:42:58.514Z,3.20
2018-02-02T06:45:26.645Z,3.10
2018-02-02T06:47:54.806Z,3.10
2018-02-02T06:50:22.935Z,3.20
2018-02-02T06:52:51.861Z,3.20
2018-02-02T06:55:19.992Z,3.20
2018-02-02T06:57:48.918Z,3.20
2018-02-02T07:00:17.055Z,3.20
2018-02-02T07:02:45.983Z,3.20
2018-02-02T07:05:14.111Z,3.20
2018-02-02T07:07:42.269Z,3.20
2018-02-02T07:10:10.407Z,3.30
2018-02-02T07:12:38.562Z,3.30
2018-02-02T07:15:06.696Z,3.30
2018-02-02T07:17:34.873Z,3.20
2018-02-02T07:20:03.009Z,3.30
2018-02-02T07:22:31.172Z,3.30
2018-02-02T07:24:59.315Z,3.30
2018-02-02T07:27:28.240Z,3.30
2018-02-02T07:29:56.377Z,3.20
2018-02-02T07:32:25.302Z,3.20
2018-02-02T07:34:53.429Z,3.20
2018-02-02T07:37:22.353Z,3.30
2018-02-02T07:39:50.518Z,3.30
2018-02-02T07:42:18.680Z,3.30
2018-02-02T07:44:46.813Z,3.30
2018-02-02T07:47:14.989Z,3.30
2018-02-02T07:49:43.121Z,3.30
2018-02-02T07:52:11.278Z,3.30
2018-02-02T07:54:39.405Z,3.30
2018-02-02T07:57:07.570Z,3.30
2018-02-02T07:59:35.695Z,3.30
2018-02-02T08:02:04.621Z,3.40
2018-02-02T08:04:32.762Z,3.50
2018-02-02T08:07:01.682Z,3.40
2018-02-02T08:09:29.829Z,3.30
2018-02-02T08:11:58.739Z,3.40
2018-02-02T08:14:26.869Z,3.40
2018-02-02T08:16:55.028Z,3.40
2018-02-02T08:19:23.155Z,3.40
2018-02-02T08:21:51.307Z,3.40
2018-02-02T08:24:19.436Z,3.40
2018-02-02T08:26:47.607Z,3.40
2018-02-02T08:29:15.734Z,3.40
2018-02-02T08:31:43.890Z,3.40
2018-02-02T08:34:12.008Z,3.40
2018-02-02T08:36:40.166Z,3.50
2018-02-02T08:39:08.290Z,3.50
2018-02-02T08:41:36.449Z,3.50
2018-02-02T08:44:04.573Z,3.50
2018-02-02T08:46:32.700Z,3.60
2018-02-02T08:49:00.851Z,3.60
2018-02-02T08:51:28.975Z,3.70
2018-02-02T08:53:57.137Z,3.60
2018-02-02T08:56:25.263Z,3.70
2018-02-02T08:58:53.409Z,3.80
2018-02-02T09:01:28.005Z,3.80
2018-02-02T09:03:56.166Z,3.80
2018-02-02T09:06:24.293Z,3.80
2018-02-02T09:08:52.449Z,3.90
2018-02-02T09:11:21.338Z,4.00
2018-02-02T09:13:49.495Z,3.90
2018-02-02T09:16:17.616Z,4.00
2018-02-02T09:18:45.774Z,4.00
2018-02-02T09:21:13.941Z,4.10
2018-02-02T09:23:42.100Z,4.10
2018-02-02T09:26:10.985Z,4.20
2018-02-02T09:28:39.139Z,4.20
2018-02-02T09:31:07.267Z,4.20
2018-02-02T09:33:35.410Z,4.20
2018-02-02T09:36:03.537Z,4.30
2018-02-02T09:38:31.746Z,4.30
2018-02-02T09:41:00.849Z,4.30
2018-02-02T09:43:29.034Z,4.30
2018-02-02T09:45:57.160Z,4.30
2018-02-02T09:48:25.314Z,4.40
2018-02-02T09:50:53.456Z,4.40
2018-02-02T09:53:21.742Z,4.40
2018-02-02T09:55:49.884Z,4.50
2018-02-02T09:58:18.049Z,4.50
2018-02-02T10:00:46.207Z,4.50
2018-02-02T10:03:14.350Z,4.50
2018-02-02T10:05:42.484Z,4.50
2018-02-02T10:08:10.641Z,4.40
2018-02-02T10:10:38.787Z,4.40
2018-02-02T10:13:06.932Z,4.40
2018-02-02T10:15:35.068Z,4.40
2018-02-02T10:18:03.992Z,4.40
2018-02-02T10:20:32.126Z,4.40
2018-02-02T10:23:00.282Z,4.40
2018-02-02T10:25:28.419Z,4.30
2018-02-02T10:27:56.573Z,4.30
2018-02-02T10:30:25.489Z,4.30
2018-02-02T10:32:53.632Z,4.30
2018-02-02T10:35:22.529Z,4.20
2018-02-02T10:37:50.693Z,4.20
2018-02-02T10:40:19.584Z,4.20
2018-02-02T10:42:47.732Z,4.20
2018-02-02T10:45:15.856Z,4.20
2018-02-02T10:47:44.029Z,4.10
2018-02-02T10:50:12.158Z,4.20
2018-02-02T10:52:40.320Z,4.20
2018-02-02T10:55:08.442Z,4.20
2018-02-02T10:57:36.589Z,4.20
2018-02-02T11:00:04.719Z,4.20
2018-02-02T11:02:38.487Z,4.20
2018-02-02T11:05:06.625Z,4.20
2018-02-02T11:07:34.763Z,4.20
2018-02-02T11:10:02.918Z,4.20
2018-02-02T11:12:31.044Z,4.20
2018-02-02T11:14:59.200Z,4.30
2018-02-02T11:17:27.326Z,4.30
2018-02-02T11:19:55.480Z,4.30
2018-02-02T11:22:23.665Z,4.30
2018-02-02T11:24:52.580Z,4.40
2018-02-02T11:27:20.714Z,4.40
2018-02-02T11:29:49.641Z,4.50
2018-02-02T11:32:17.772Z,4.50
2018-02-02T11:34:45.932Z,4.50
2018-02-02T11:37:14.092Z,4.60
2018-02-02T11:39:42.244Z,4.60
2018-02-02T11:42:10.383Z,4.60
2018-02-02T11:44:39.315Z,4.60
2018-02-02T11:47:07.446Z,4.60
2018-02-02T11:49:36.354Z,4.50
2018-02-02T11:52:04.488Z,4.50
2018-02-02T11:54:32.641Z,4.50
2018-02-02T11:57:00.764Z,4.50
2018-02-02T11:59:28.920Z,4.50
2018-02-02T12:01:57.050Z,4.50
2018-02-02T12:04:25.192Z,4.60
2018-02-02T12:06:53.318Z,4.60
2018-02-02T12:09:21.477Z,4.50
2018-02-02T12:11:49.598Z,4.50
2018-02-02T12:14:17.752Z,4.50
2018-02-02T12:16:46.657Z,4.50
2018-02-02T12:19:14.805Z,4.50
2018-02-02T12:21:48.489Z,4.50
2018-02-02T12:24:18.457Z,4.50
2018-02-02T12:30:01.753Z,4.60
2018-02-02T12:32:35.444Z,4.60
2018-02-02T12:35:13.512Z,4.60
2018-02-02T12:37:41.633Z,4.60
2018-02-02T12:40:09.795Z,4.60
2018-02-02T12:42:37.920Z,4.60
2018-02-02T12:45:06.080Z,4.60
2018-02-02T12:47:35.060Z,4.60
2018-02-02T12:50:08.065Z,4.60
2018-02-02T12:52:36.192Z,4.60
2018-02-02T12:55:04.369Z,4.60
2018-02-02T12:57:32.505Z,4.60
2018-02-02T13:00:00.676Z,4.60
2018-02-02T13:02:28.805Z,4.60
2018-02-02T13:04:56.957Z,4.60
2018-02-02T13:07:25.085Z,4.60
2018-02-02T13:09:53.245Z,4.60
2018-02-02T13:12:21.365Z,4.60
2018-02-02T13:14:49.516Z,4.60
2018-02-02T13:17:17.644Z,4.70
2018-02-02T13:19:45.806Z,4.60
2018-02-02T13:22:13.932Z,4.60
2018-02-02T13:24:42.084Z,4.60
2018-02-02T13:27:10.419Z,4.60
2018-02-02T13:29:38.544Z,4.60
2018-02-02T13:32:07.466Z,4.60
2018-02-02T13:34:35.597Z,4.60
2018-02-02T13:37:03.753Z,4.60
2018-02-02T13:39:31.883Z,4.60
2018-02-02T13:42:00.036Z,4.50
2018-02-02T13:44:28.176Z,4.50
2018-02-02T13:46:56.333Z,4.50
2018-02-02T13:49:24.493Z,4.50
2018-02-02T13:51:52.681Z,4.50
2018-02-02T13:54:20.825Z,4.50
2018-02-02T13:56:49.002Z,4.50
2018-02-02T13:59:17.125Z,4.50
2018-02-02T14:01:45.286Z,4.50
2018-02-02T14:04:13.413Z,4.50
2018-02-02T14:06:41.570Z,4.50
2018-02-02T14:09:09.698Z,4.40
2018-02-02T14:11:37.853Z,4.50
2018-02-02T14:14:05.968Z,4.40
2018-02-02T14:16:34.141Z,4.40
2018-02-02T14:19:02.261Z,4.40
2018-02-02T14:21:30.422Z,4.40
2018-02-02T14:23:58.558Z,4.40
2018-02-02T14:26:26.722Z,4.40
2018-02-02T14:28:54.848Z,4.40
2018-02-02T14:31:23.006Z,4.40
2018-02-02T14:33:51.141Z,4.40
2018-02-02T14:36:19.297Z,4.40
2018-02-02T14:38:47.434Z,4.30
2018-02-02T14:41:15.584Z,4.30
2018-02-02T14:43:43.712Z,4.30
2018-02-02T14:46:11.871Z,4.30
2018-02-02T14:48:40.003Z,4.30
2018-02-02T14:51:08.201Z,4.30
2018-02-02T14:53:36.328Z,4.20
2018-02-02T14:56:04.485Z,4.20
2018-02-02T14:58:32.616Z,4.20
2018-02-02T15:01:00.773Z,4.10
2018-02-02T15:03:28.910Z,4.10
2018-02-02T15:05:57.067Z,4.10
2018-02-02T15:08:25.199Z,4.10
2018-02-02T15:10:53.350Z,4.10
2018-02-02T15:13:21.487Z,4.10
2018-02-02T15:15:49.670Z,4.10
2018-02-02T15:18:17.825Z,4.10
2018-02-02T15:20:46.000Z,4.00
2018-02-02T15:23:16.880Z,4.00
2018-02-02T15:25:45.104Z,4.00
2018-02-02T15:28:13.292Z,4.00
2018-02-02T15:30:41.419Z,4.00
2018-02-02T15:33:10.322Z,4.00
2018-02-02T15:35:38.501Z,4.00
2018-02-02T15:38:06.624Z,4.00
2018-02-02T15:40:34.776Z,4.00
2018-02-02T15:43:02.918Z,3.90
2018-02-02T15:45:31.099Z,3.90
2018-02-02T15:47:59.246Z,3.90
2018-02-02T15:50:27.384Z,3.90
2018-02-02T15:52:55.585Z,3.90
2018-02-02T15:55:24.484Z,3.90
2018-02-02T15:57:52.636Z,3.90
2018-02-02T16:00:20.764Z,3.90
2018-02-02T16:02:48.932Z,3.80
2018-02-02T16:05:17.061Z,3.80
2018-02-02T16:07:45.230Z,3.80
2018-02-02T16:10:13.405Z,3.80
2018-02-02T16:12:41.568Z,3.80
2018-02-02T16:15:09.707Z,3.80
2018-02-02T16:17:37.865Z,3.80
2018-02-02T16:20:05.997Z,3.70
2018-02-02T16:22:34.149Z,3.70
2018-02-02T16:25:02.297Z,3.70
2018-02-02T16:27:30.463Z,3.70
2018-02-02T16:29:58.588Z,3.70
2018-02-02T16:32:26.753Z,3.70
2018-02-02T16:34:54.891Z,3.60
2018-02-02T16:37:23.072Z,3.60
2018-02-02T16:39:51.222Z,3.60
2018-02-02T16:42:19.377Z,3.60
2018-02-02T16:44:47.500Z,3.60
2018-02-02T16:47:15.656Z,3.60
2018-02-02T16:49:43.862Z,3.60
2018-02-02T16:52:12.063Z,3.60
2018-02-02T16:54:43.219Z,3.60
2018-02-02T16:57:12.754Z,3.60
2018-02-02T16:59:40.907Z,3.60
2018-02-02T17:02:09.835Z,3.60
2018-02-02T17:04:37.958Z,3.60
2018-02-02T17:07:06.877Z,3.60
2018-02-02T17:09:35.019Z,3.60
2018-02-02T17:12:03.214Z,3.60
2018-02-02T17:14:31.345Z,3.60
2018-02-02T17:16:59.505Z,3.60
2018-02-02T17:19:27.689Z,3.60
2018-02-02T17:21:55.863Z,3.60
2018-02-02T17:24:23.984Z,3.60
2018-02-02T17:26:52.162Z,3.60
2018-02-02T17:29:20.293Z,3.60
2018-02-02T17:31:48.452Z,3.60
2018-02-02T17:34:16.589Z,3.50
2018-02-02T17:36:44.791Z,3.60
2018-02-02T17:39:12.957Z,3.60
2018-02-02T17:41:41.181Z,3.60
2018-02-02T17:44:10.187Z,3.60
2018-02-02T17:46:39.280Z,3.60
2018-02-02T17:49:07.459Z,3.60
2018-02-02T17:51:35.612Z,3.60
2018-02-02T17:54:04.711Z,3.60
2018-02-02T17:56:33.371Z,3.60
2018-02-02T17:59:01.517Z,3.60
2018-02-02T18:01:34.113Z,3.60
2018-02-02T18:04:02.245Z,3.60
2018-02-02T18:06:30.413Z,3.60
2018-02-02T18:08:58.553Z,3.50
2018-02-02T18:11:26.757Z,3.60
2018-02-02T18:13:55.343Z,3.50
2018-02-02T18:16:23.533Z,3.50
2018-02-02T18:18:51.700Z,3.50
2018-02-02T18:21:21.477Z,3.50
2018-02-02T18:23:50.616Z,3.50
2018-02-02T18:26:18.794Z,3.50
2018-02-02T18:28:47.477Z,3.50
2018-02-02T18:31:15.891Z,3.50
2018-02-02T18:33:44.707Z,3.50
2018-02-02T18:36:12.904Z,3.50
2018-02-02T18:38:41.123Z,3.50
2018-02-02T18:41:09.353Z,3.40
2018-02-02T18:43:37.538Z,3.40
2018-02-02T18:46:05.670Z,3.40
2018-02-02T18:48:33.825Z,3.40
2018-02-02T18:51:02.029Z,3.40
2018-02-02T18:53:30.452Z,3.40
2018-02-02T18:55:58.661Z,3.40
2018-02-02T18:58:27.605Z,3.40
2018-02-02T19:00:55.753Z,3.40
2018-02-02T19:03:24.702Z,3.40
2018-02-02T19:05:52.834Z,3.40
2018-02-02T19:08:21.067Z,3.40
2018-02-02T19:10:49.322Z,3.40
2018-02-02T19:13:17.591Z,3.40
2018-02-02T19:15:45.848Z,3.40
2018-02-02T19:18:14.392Z,3.40
2018-02-02T19:20:45.257Z,3.40
2018-02-02T19:23:13.615Z,3.40
2018-02-02T19:25:42.511Z,3.40
2018-02-02T19:28:10.752Z,3.40
2018-02-02T19:30:38.892Z,3.40
2018-02-02T19:33:07.079Z,3.40
2018-02-02T19:35:35.393Z,3.50
2018-02-02T19:38:03.685Z,3.40
2018-02-02T19:40:32.178Z,3.40
2018-02-02T19:43:00.364Z,3.50
2018-02-02T19:45:28.489Z,3.50
2018-02-02T19:47:56.658Z,3.50
2018-02-02T19:50:24.818Z,3.50
2018-02-02T19:52:52.978Z,3.40
2018-02-02T19:55:21.160Z,3.50
2018-02-02T19:57:51.850Z,3.50
2018-02-02T20:00:19.999Z,3.50
2018-02-02T20:02:48.169Z,3.50
2018-02-02T20:05:16.303Z,3.50
2018-02-02T20:07:44.485Z,3.50
2018-02-02T20:10:12.616Z,3.50
2018-02-02T20:12:40.978Z,3.50
2018-02-02T20:15:09.289Z,3.50
2018-02-02T20:17:37.449Z,3.50
2018-02-02T20:20:05.594Z,3.50
2018-02-02T20:22:33.921Z,3.50
2018-02-02T20:25:04.301Z,3.50
2018-02-02T20:27:33.562Z,3.50
2018-02-02T20:30:01.697Z,3.50
2018-02-02T20:32:29.860Z,3.50
2018-02-02T20:34:58.010Z,3.50
2018-02-02T20:37:26.205Z,3.40
2018-02-02T20:39:55.111Z,3.40
2018-02-02T20:42:23.293Z,3.40
2018-02-02T20:44:51.434Z,3.40
2018-02-02T20:47:19.593Z,3.40
2018-02-02T20:49:47.728Z,3.30
2018-02-02T20:52:15.873Z,3.30
2018-02-02T20:54:44.030Z,3.30
2018-02-02T20:57:12.167Z,3.30
2018-02-02T20:59:40.325Z,3.20
2018-02-02T21:02:08.461Z,3.20
2018-02-02T21:04:37.422Z,3.20
2018-02-02T21:07:05.590Z,3.20
2018-02-02T21:09:33.758Z,3.20
2018-02-02T21:12:01.897Z,3.20
2018-02-02T21:14:30.071Z,3.20
2018-02-02T21:16:58.200Z,3.20
2018-02-02T21:19:26.366Z,3.20
2018-02-02T21:21:54.497Z,3.20
2018-02-02T21:24:22.698Z,3.30
2018-02-02T21:26:50.840Z,3.30
2018-02-02T21:29:19.011Z,3.30
2018-02-02T21:31:47.159Z,3.20
2018-02-02T21:34:16.108Z,3.30
2018-02-02T21:36:44.245Z,3.20
2018-02-02T21:39:12.408Z,3.30
2018-02-02T21:41:40.540Z,3.30
2018-02-02T21:44:08.710Z,3.30
2018-02-02T21:46:36.838Z,3.30
2018-02-02T21:49:05.073Z,3.30
2018-02-02T21:51:33.202Z,3.30
2018-02-02T21:54:01.357Z,3.30
2018-02-02T21:56:29.497Z,3.30
2018-02-02T21:58:58.424Z,3.30
2018-02-02T22:01:26.558Z,3.30
2018-02-02T22:03:54.754Z,3.30
2018-02-02T22:06:22.889Z,3.30
2018-02-02T22:08:51.044Z,3.30
2018-02-02T22:11:19.178Z,3.30
2018-02-02T22:13:47.360Z,3.30
2018-02-02T22:16:15.492Z,3.30
2018-02-02T22:18:43.691Z,3.30
2018-02-02T22:21:11.835Z,3.30
2018-02-02T22:23:39.988Z,3.30
2018-02-02T22:26:08.132Z,3.30
2018-02-02T22:28:36.302Z,3.30
2018-02-02T22:31:04.437Z,3.30
2018-02-02T22:33:32.610Z,3.30
2018-02-02T22:36:00.811Z,3.30
2018-02-02T22:38:28.975Z,3.30
2018-02-02T22:40:57.111Z,3.20
2018-02-02T22:43:25.269Z,3.20
2018-02-02T22:45:53.398Z,3.20
2018-02-02T22:48:21.561Z,3.20
2018-02-02T22:50:49.693Z,3.20
2018-02-02T22:53:17.852Z,3.20
2018-02-02T22:55:46.010Z,3.20
2018-02-02T22:58:14.182Z,3.20
2018-02-02T23:00:42.313Z,3.20
2018-02-02T23:03:10.474Z,3.20
2018-02-02T23:05:38.609Z,3.20
2018-02-02T23:08:06.786Z,3.20
2018-02-02T23:10:35.018Z,3.20
2018-02-02T23:13:03.146Z,3.20
2018-02-02T23:15:31.364Z,3.20
2018-02-02T23:17:59.510Z,3.20
2018-02-02T23:20:27.677Z,3.20
2018-02-02T23:22:55.915Z,3.20
2018-02-02T23:25:24.097Z,3.20
2018-02-02T23:27:52.228Z,3.20
2018-02-02T23:30:20.393Z,3.20
2018-02-02T23:32:48.525Z,3.20
2018-02-02T23:35:16.679Z,3.20
2018-02-02T23:37:44.824Z,3.20
2018-02-02T23:40:12.985Z,3.10
2018-02-02T23:42:41.118Z,3.10
2018-02-02T23:45:09.285Z,3.10
2018-02-02T23:47:37.461Z,3.10
2018-02-02T23:50:05.618Z,3.10
2018-02-02T23:52:33.747Z,3.10
2018-02-02T23:55:01.916Z,3.10
2018-02-02T23:57:30.060Z,3.10
2018-02-02T23:59:58.223Z,3.10
